Time;durP1;ratioP1;P1;durP2;ratioP2;P2;SDS_P1;SDS_P2;PMS_P1;PMS_P2;Temp;Humidity;BMP_temperature;BMP_pressure;BME280_temperature;BME280_humidity;BME280_pressure;Samples;Min_cycle;Max_cycle;Signal;HPM_P1;HPM_P2
2023/01/21 00:00:41;;;;;;;40.45;34.58;;;;;;;;;;5101912;28;20195;-85
2023/01/21 00:03:09;;;;;;;36.20;32.60;;;;;;;;;;5101760;28;20208;-86
2023/01/21 00:05:36;;;;;;;36.15;32.80;;;;;;;;;;5101362;28;20644;-86
2023/01/21 00:08:03;;;;;;;38.28;34.38;;;;;;;;;;5101655;28;20668;-86
2023/01/21 00:10:30;;;;;;;37.30;33.35;;;;;;;;;;5101543;28;20215;-86
2023/01/21 00:12:57;;;;;;;37.78;33.72;;;;;;;;;;5101111;28;20233;-85
2023/01/21 00:15:25;;;;;;;45.17;36.10;;;;;;;;;;5101815;28;20218;-86
2023/01/21 00:17:52;;;;;;;43.08;38.33;;;;;;;;;;5101612;28;20195;-86
2023/01/21 00:20:19;;;;;;;46.72;39.05;;;;;;;;;;5101161;28;20220;-86
2023/01/21 00:22:46;;;;;;;49.33;37.45;;;;;;;;;;5101439;28;20552;-86
2023/01/21 00:25:13;;;;;;;44.15;36.38;;;;;;;;;;5101861;28;20287;-86
2023/01/21 00:27:40;;;;;;;32.13;29.25;;;;;;;;;;5101439;28;20251;-85
2023/01/21 00:30:09;;;;;;;36.55;33.15;;;;;;;;;;5101269;28;20883;-85
2023/01/21 00:32:37;;;;;;;38.45;34.45;;;;;;;;;;5104997;28;20206;-86
2023/01/21 00:35:05;;;;;;;35.88;32.35;;;;;;;;;;5110642;28;20227;-86
2023/01/21 00:37:32;;;;;;;36.58;32.78;;;;;;;;;;5110828;28;20218;-86
2023/01/21 00:39:59;;;;;;;36.03;32.38;;;;;;;;;;5106845;28;20196;-86
2023/01/21 00:42:26;;;;;;;34.22;31.13;;;;;;;;;;5104750;28;20195;-85
2023/01/21 00:44:53;;;;;;;34.80;31.70;;;;;;;;;;5104172;28;20226;-86
2023/01/21 00:47:20;;;;;;;35.05;31.85;;;;;;;;;;5102976;28;20215;-86
2023/01/21 00:49:49;;;;;;;33.55;30.30;;;;;;;;;;5102719;28;20195;-87
2023/01/21 00:52:16;;;;;;;36.05;32.35;;;;;;;;;;5101897;28;20222;-85
2023/01/21 00:54:43;;;;;;;33.95;30.90;;;;;;;;;;5101695;28;20214;-86
2023/01/21 00:57:10;;;;;;;36.00;32.33;;;;;;;;;;5102313;28;20284;-86
2023/01/21 00:59:37;;;;;;;33.53;30.58;;;;;;;;;;5101885;28;20243;-84
2023/01/21 01:02:04;;;;;;;35.15;31.80;;;;;;;;;;5100942;28;20206;-85
2023/01/21 01:04:31;;;;;;;33.05;29.95;;;;;;;;;;5100531;28;20241;-85
2023/01/21 01:06:59;;;;;;;35.67;32.17;;;;;;;;;;5101190;28;20195;-85
2023/01/21 01:09:26;;;;;;;36.28;31.30;;;;;;;;;;5100500;28;20262;-86
2023/01/21 01:11:53;;;;;;;33.55;30.20;;;;;;;;;;5099874;28;20219;-85
2023/01/21 01:14:21;;;;;;;35.20;31.92;;;;;;;;;;5100037;28;20219;-85
2023/01/21 01:16:48;;;;;;;34.60;31.27;;;;;;;;;;5100229;28;20329;-86
2023/01/21 01:19:15;;;;;;;35.10;31.50;;;;;;;;;;5100497;28;20203;-86
2023/01/21 01:21:42;;;;;;;36.50;33.10;;;;;;;;;;5099680;28;20203;-86
2023/01/21 01:24:10;;;;;;;35.70;32.30;;;;;;;;;;5099753;28;20598;-84
2023/01/21 01:26:37;;;;;;;39.38;32.13;;;;;;;;;;5100014;28;20207;-85
2023/01/21 01:29:04;;;;;;;36.45;32.97;;;;;;;;;;5100467;28;20228;-86
2023/01/21 01:31:31;;;;;;;37.28;33.58;;;;;;;;;;5099151;28;20680;-85
2023/01/21 01:33:59;;;;;;;34.75;31.15;;;;;;;;;;5099479;28;20256;-85
2023/01/21 01:36:26;;;;;;;37.33;33.58;;;;;;;;;;5099414;28;20252;-86
2023/01/21 01:38:53;;;;;;;35.63;32.22;;;;;;;;;;5099476;28;20260;-86
2023/01/21 01:41:23;;;;;;;36.28;32.47;;;;;;;;;;5098925;28;20224;-86
2023/01/21 01:43:52;;;;;;;37.72;33.72;;;;;;;;;;5099522;28;20206;-85
2023/01/21 01:46:19;;;;;;;36.78;33.10;;;;;;;;;;5099297;28;20635;-85
2023/01/21 01:48:47;;;;;;;36.92;33.50;;;;;;;;;;5099615;28;20237;-86
2023/01/21 01:51:15;;;;;;;36.20;32.70;;;;;;;;;;5099626;28;20275;-85
2023/01/21 01:53:44;;;;;;;38.35;32.70;;;;;;;;;;5100187;28;20198;-86
2023/01/21 01:56:11;;;;;;;36.95;33.30;;;;;;;;;;5099854;28;20218;-86
2023/01/21 01:58:40;;;;;;;35.35;32.10;;;;;;;;;;5100205;28;20224;-87
2023/01/21 02:01:07;;;;;;;36.83;33.20;;;;;;;;;;5099897;28;20261;-84
2023/01/21 02:03:45;;;;;;;36.20;32.53;;;;;;;;;;5099860;28;20206;-85
2023/01/21 02:06:12;;;;;;;37.78;33.05;;;;;;;;;;5100138;28;20248;-86
2023/01/21 02:08:40;;;;;;;34.60;31.13;;;;;;;;;;5099918;28;20262;-86
2023/01/21 02:11:11;;;;;;;36.03;32.45;;;;;;;;;;5099102;28;20280;-86
2023/01/21 02:13:39;;;;;;;33.92;30.63;;;;;;;;;;5099668;28;20187;-85
2023/01/21 02:16:19;;;;;;;34.13;30.98;;;;;;;;;;5099172;28;20226;-85
2023/01/21 02:18:51;;;;;;;33.97;30.80;;;;;;;;;;5100374;28;20236;-85
2023/01/21 02:21:36;;;;;;;34.50;30.80;;;;;;;;;;5099055;28;20599;-86
2023/01/21 02:24:15;;;;;;;34.22;30.80;;;;;;;;;;5099732;28;20186;-84
2023/01/21 02:26:51;;;;;;;34.97;31.30;;;;;;;;;;5099536;28;20264;-85
2023/01/21 02:29:43;;;;;;;34.58;31.02;;;;;;;;;;5099473;28;20667;-85
2023/01/21 02:32:33;;;;;;;33.47;30.52;;;;;;;;;;5078769;28;20222;-86
2023/01/21 02:35:05;;;;;;;33.58;30.23;;;;;;;;;;5099051;28;20219;-86
2023/01/21 02:37:37;;;;;;;34.10;30.55;;;;;;;;;;5100209;28;20191;-85
2023/01/21 02:40:10;;;;;;;34.20;30.55;;;;;;;;;;5099645;28;20240;-86
2023/01/21 02:42:40;;;;;;;32.67;29.67;;;;;;;;;;5099000;28;20195;-85
2023/01/21 02:45:14;;;;;;;32.70;29.50;;;;;;;;;;5099861;28;20628;-86
2023/01/21 02:47:43;;;;;;;33.58;30.55;;;;;;;;;;5100035;28;20328;-85
2023/01/21 02:50:16;;;;;;;32.75;29.67;;;;;;;;;;5099811;28;20199;-86
2023/01/21 02:52:43;;;;;;;37.05;33.05;;;;;;;;;;5098601;28;20218;-86
2023/01/21 02:55:14;;;;;;;33.90;30.60;;;;;;;;;;5098907;28;20231;-85
2023/01/21 02:57:43;;;;;;;35.72;31.98;;;;;;;;;;5099602;28;20248;-86
2023/01/21 03:00:12;;;;;;;36.03;32.63;;;;;;;;;;5099742;28;20211;-86
2023/01/21 03:02:45;;;;;;;35.03;31.52;;;;;;;;;;5101658;28;20203;-85
2023/01/21 03:05:18;;;;;;;35.03;31.63;;;;;;;;;;5102252;28;20222;-84
2023/01/21 03:07:48;;;;;;;36.72;33.22;;;;;;;;;;5102482;28;20252;-85
2023/01/21 03:10:19;;;;;;;40.65;36.17;;;;;;;;;;5103100;28;20203;-85
2023/01/21 03:12:48;;;;;;;39.30;34.05;;;;;;;;;;5102004;28;20237;-86
2023/01/21 03:18:06;;;;;;;35.30;32.00;;;;;;;;;;5102469;28;20228;-84
2023/01/21 03:20:36;;;;;;;34.53;30.85;;;;;;;;;;5102590;28;20252;-85
2023/01/21 03:23:05;;;;;;;41.30;34.20;;;;;;;;;;5101292;28;20209;-84
2023/01/21 03:25:34;;;;;;;35.30;31.73;;;;;;;;;;5102096;28;20210;-86
2023/01/21 03:28:02;;;;;;;42.33;34.20;;;;;;;;;;5102548;28;20199;-84
2023/01/21 03:30:30;;;;;;;35.72;31.95;;;;;;;;;;5105398;28;20203;-86
2023/01/21 03:32:57;;;;;;;38.58;33.97;;;;;;;;;;5105321;28;20215;-85
2023/01/21 03:35:26;;;;;;;39.78;32.45;;;;;;;;;;5105027;28;20232;-86
2023/01/21 03:37:57;;;;;;;33.85;30.48;;;;;;;;;;5105214;28;20194;-85
2023/01/21 03:40:26;;;;;;;36.58;32.28;;;;;;;;;;5105575;28;20702;-86
2023/01/21 03:42:55;;;;;;;37.22;33.53;;;;;;;;;;5104996;28;20195;-86
2023/01/21 03:45:24;;;;;;;37.65;33.65;;;;;;;;;;5106089;28;20231;-85
2023/01/21 03:47:55;;;;;;;41.10;36.35;;;;;;;;;;5105426;28;20721;-86
2023/01/21 03:50:24;;;;;;;41.88;36.83;;;;;;;;;;5105429;28;20196;-85
2023/01/21 03:52:52;;;;;;;38.92;34.97;;;;;;;;;;5105203;28;20231;-85
2023/01/21 03:55:20;;;;;;;38.15;34.13;;;;;;;;;;5105283;28;20695;-85
2023/01/21 03:57:47;;;;;;;40.50;35.25;;;;;;;;;;5105026;28;20263;-85
2023/01/21 04:00:14;;;;;;;42.28;37.70;;;;;;;;;;5105660;28;20645;-85
2023/01/21 04:02:41;;;;;;;38.28;34.20;;;;;;;;;;5104041;28;20202;-86
2023/01/21 04:05:09;;;;;;;40.03;34.60;;;;;;;;;;5103607;28;20218;-86
2023/01/21 04:07:36;;;;;;;40.20;36.03;;;;;;;;;;5103482;28;20203;-86
2023/01/21 04:10:03;;;;;;;39.80;35.55;;;;;;;;;;5103970;28;20206;-85
2023/01/21 04:12:32;;;;;;;39.40;35.40;;;;;;;;;;5102803;28;20264;-85
2023/01/21 04:14:59;;;;;;;39.03;35.08;;;;;;;;;;5103325;28;20249;-85
2023/01/21 04:17:27;;;;;;;39.58;35.47;;;;;;;;;;5103069;28;20942;-86
2023/01/21 04:19:54;;;;;;;40.42;36.28;;;;;;;;;;5103304;28;20202;-85
2023/01/21 04:22:21;;;;;;;42.83;37.65;;;;;;;;;;5102591;28;20199;-86
2023/01/21 04:24:48;;;;;;;44.58;39.50;;;;;;;;;;5103224;28;20212;-87
2023/01/21 04:27:15;;;;;;;44.80;37.25;;;;;;;;;;5103043;28;20199;-85
2023/01/21 04:29:43;;;;;;;45.78;38.67;;;;;;;;;;5103239;28;20280;-86
2023/01/21 04:32:10;;;;;;;46.10;38.17;;;;;;;;;;5102427;28;20267;-86
2023/01/21 04:34:37;;;;;;;40.38;36.20;;;;;;;;;;5103221;28;20223;-85
2023/01/21 04:37:04;;;;;;;40.15;35.78;;;;;;;;;;5103208;28;20252;-86
2023/01/21 04:39:31;;;;;;;45.25;36.22;;;;;;;;;;5102569;28;20239;-86
2023/01/21 04:41:58;;;;;;;38.10;34.30;;;;;;;;;;5102894;28;20203;-85
2023/01/21 04:44:25;;;;;;;37.90;33.88;;;;;;;;;;5103176;28;20222;-85
2023/01/21 04:46:54;;;;;;;40.08;34.50;;;;;;;;;;5102446;28;20717;-86
2023/01/21 04:49:21;;;;;;;39.28;35.15;;;;;;;;;;5102831;28;20203;-85
2023/01/21 04:51:48;;;;;;;47.72;36.35;;;;;;;;;;5102235;28;20212;-85
2023/01/21 04:54:15;;;;;;;46.20;38.88;;;;;;;;;;5102635;28;20195;-86
2023/01/21 04:56:42;;;;;;;38.83;34.85;;;;;;;;;;5103245;28;20217;-85
2023/01/21 04:59:10;;;;;;;41.40;35.13;;;;;;;;;;5106307;28;20203;-86
2023/01/21 05:01:36;;;;;;;41.55;36.53;;;;;;;;;;5107269;28;20217;-86
2023/01/21 05:04:05;;;;;;;42.13;35.05;;;;;;;;;;5107260;28;20267;-86
2023/01/21 05:06:32;;;;;;;39.20;34.92;;;;;;;;;;5104974;28;20210;-85
2023/01/21 05:08:59;;;;;;;38.75;34.15;;;;;;;;;;5104829;28;20696;-86
2023/01/21 05:11:26;;;;;;;38.97;34.30;;;;;;;;;;5103256;28;20218;-86
2023/01/21 05:13:53;;;;;;;37.95;33.85;;;;;;;;;;5104970;28;20231;-85
2023/01/21 05:16:20;;;;;;;39.45;34.25;;;;;;;;;;5103574;28;20245;-86
2023/01/21 05:18:47;;;;;;;37.55;33.17;;;;;;;;;;5103907;28;20203;-86
2023/01/21 05:21:16;;;;;;;38.00;33.85;;;;;;;;;;5103987;28;20229;-85
2023/01/21 05:23:43;;;;;;;44.25;36.25;;;;;;;;;;5103418;28;20204;-86
2023/01/21 05:26:10;;;;;;;45.55;35.67;;;;;;;;;;5103374;28;20571;-85
2023/01/21 05:28:37;;;;;;;39.92;33.70;;;;;;;;;;5103536;28;20252;-86
2023/01/21 05:31:04;;;;;;;38.00;33.25;;;;;;;;;;5102928;28;20190;-86
2023/01/21 05:33:31;;;;;;;37.47;33.05;;;;;;;;;;5102009;28;20750;-86
2023/01/21 05:36:00;;;;;;;38.75;34.72;;;;;;;;;;5102883;28;20404;-86
2023/01/21 05:38:28;;;;;;;37.13;33.47;;;;;;;;;;5102830;28;20313;-85
2023/01/21 05:40:59;;;;;;;35.55;31.95;;;;;;;;;;5102307;28;20211;-86
2023/01/21 05:43:26;;;;;;;37.00;33.08;;;;;;;;;;5101851;28;20199;-85
2023/01/21 05:45:53;;;;;;;36.50;32.25;;;;;;;;;;5102016;28;20227;-85
2023/01/21 05:48:20;;;;;;;34.92;31.30;;;;;;;;;;5102123;28;20236;-86
2023/01/21 05:50:47;;;;;;;35.47;31.88;;;;;;;;;;5101815;28;20204;-85
2023/01/21 05:53:15;;;;;;;40.53;33.35;;;;;;;;;;5101465;28;20215;-86
2023/01/21 05:55:43;;;;;;;36.40;32.42;;;;;;;;;;5101905;28;20270;-85
2023/01/21 05:58:10;;;;;;;36.45;32.55;;;;;;;;;;5101823;28;20203;-86
2023/01/21 06:00:37;;;;;;;35.85;32.03;;;;;;;;;;5101977;28;20210;-85
2023/01/21 06:03:04;;;;;;;33.60;30.45;;;;;;;;;;5101207;28;20219;-86
2023/01/21 06:05:31;;;;;;;32.88;29.77;;;;;;;;;;5102376;28;20216;-85
2023/01/21 06:07:58;;;;;;;34.85;31.35;;;;;;;;;;5102229;28;20230;-85
2023/01/21 06:10:25;;;;;;;32.97;29.58;;;;;;;;;;5102060;28;20258;-86
2023/01/21 06:12:54;;;;;;;34.53;31.13;;;;;;;;;;5101229;28;20277;-85
2023/01/21 06:15:21;;;;;;;38.10;30.90;;;;;;;;;;5102428;28;20224;-85
2023/01/21 06:17:48;;;;;;;33.53;30.08;;;;;;;;;;5101828;28;20811;-85
2023/01/21 06:20:15;;;;;;;33.67;30.50;;;;;;;;;;5101459;28;20209;-85
2023/01/21 06:22:42;;;;;;;37.00;33.22;;;;;;;;;;5101233;28;20212;-85
2023/01/21 06:25:09;;;;;;;34.25;30.98;;;;;;;;;;5101707;28;20231;-86
2023/01/21 06:27:37;;;;;;;39.67;32.30;;;;;;;;;;5101139;28;20241;-84
2023/01/21 06:30:06;;;;;;;33.92;30.27;;;;;;;;;;5100687;28;20203;-86
2023/01/21 06:32:33;;;;;;;34.47;31.00;;;;;;;;;;5100307;28;20217;-86
2023/01/21 06:35:00;;;;;;;34.22;30.45;;;;;;;;;;5101306;28;20235;-85
2023/01/21 06:37:27;;;;;;;33.22;29.92;;;;;;;;;;5101567;28;20211;-86
2023/01/21 06:39:54;;;;;;;34.13;30.75;;;;;;;;;;5101532;28;20217;-86
2023/01/21 06:42:21;;;;;;;38.20;32.85;;;;;;;;;;5101108;28;20555;-85
2023/01/21 06:44:48;;;;;;;35.13;31.83;;;;;;;;;;5101187;28;20249;-86
2023/01/21 06:47:16;;;;;;;32.38;29.00;;;;;;;;;;5101870;28;20207;-86
2023/01/21 06:49:43;;;;;;;34.65;31.25;;;;;;;;;;5102433;28;20193;-86
2023/01/21 06:52:11;;;;;;;35.28;31.75;;;;;;;;;;5100679;28;20245;-86
2023/01/21 06:54:38;;;;;;;33.55;30.15;;;;;;;;;;5102300;28;20216;-85
2023/01/21 06:57:05;;;;;;;40.53;34.83;;;;;;;;;;5101836;28;20234;-84
2023/01/21 06:59:32;;;;;;;35.42;31.58;;;;;;;;;;5101888;28;20235;-86
2023/01/21 07:01:59;;;;;;;36.03;32.33;;;;;;;;;;5095918;28;20208;-86
2023/01/21 07:04:27;;;;;;;35.10;31.75;;;;;;;;;;5101412;28;20269;-85
2023/01/21 07:06:55;;;;;;;35.25;31.70;;;;;;;;;;5105488;28;20250;-85
2023/01/21 07:09:22;;;;;;;36.33;32.47;;;;;;;;;;5105673;28;20207;-85
2023/01/21 07:11:49;;;;;;;41.15;33.25;;;;;;;;;;5104828;28;20227;-86
2023/01/21 07:14:16;;;;;;;40.78;33.95;;;;;;;;;;5104498;28;20224;-86
2023/01/21 07:16:43;;;;;;;34.70;31.15;;;;;;;;;;5104669;28;20686;-86
2023/01/21 07:19:11;;;;;;;34.25;30.67;;;;;;;;;;5105685;28;20217;-86
2023/01/21 07:21:40;;;;;;;37.58;33.80;;;;;;;;;;5104156;28;20209;-84
2023/01/21 07:24:07;;;;;;;35.47;31.88;;;;;;;;;;5105533;28;20204;-85
2023/01/21 07:26:36;;;;;;;36.60;32.85;;;;;;;;;;5104896;28;20279;-86
2023/01/21 07:29:03;;;;;;;35.10;31.73;;;;;;;;;;5104860;28;20200;-86
2023/01/21 07:31:30;;;;;;;37.85;34.00;;;;;;;;;;5104904;28;20622;-86
2023/01/21 07:33:57;;;;;;;32.28;29.27;;;;;;;;;;5102778;28;20223;-85
2023/01/21 07:36:25;;;;;;;36.70;32.55;;;;;;;;;;5102427;28;20664;-84
2023/01/21 07:38:53;;;;;;;34.42;30.75;;;;;;;;;;5102612;28;20211;-84
2023/01/21 07:41:20;;;;;;;38.20;33.55;;;;;;;;;;5101014;28;20201;-84
2023/01/21 07:43:47;;;;;;;35.83;32.13;;;;;;;;;;5101377;28;20254;-84
2023/01/21 07:46:16;;;;;;;33.63;30.33;;;;;;;;;;5100748;28;20228;-85
2023/01/21 07:48:43;;;;;;;34.25;30.75;;;;;;;;;;5101764;28;20199;-84
2023/01/21 07:51:10;;;;;;;36.70;33.10;;;;;;;;;;5101513;28;20213;-83
2023/01/21 07:53:37;;;;;;;35.72;31.92;;;;;;;;;;5101172;28;20246;-85
2023/01/21 07:56:06;;;;;;;36.45;32.65;;;;;;;;;;5101543;28;20736;-85
2023/01/21 07:58:33;;;;;;;37.35;33.70;;;;;;;;;;5100999;28;20236;-84
2023/01/21 08:01:00;;;;;;;34.63;31.20;;;;;;;;;;5100879;28;20201;-84
2023/01/21 08:03:27;;;;;;;36.35;32.75;;;;;;;;;;5101643;28;20255;-84
2023/01/21 08:05:54;;;;;;;34.75;31.10;;;;;;;;;;5100742;28;20217;-84
2023/01/21 08:08:21;;;;;;;35.03;31.58;;;;;;;;;;5101431;28;20200;-84
2023/01/21 08:10:51;;;;;;;36.83;33.15;;;;;;;;;;5101008;28;20227;-84
2023/01/21 08:13:19;;;;;;;37.28;33.45;;;;;;;;;;5100636;28;20709;-84
2023/01/21 08:15:50;;;;;;;38.28;34.28;;;;;;;;;;5099904;28;20232;-84
2023/01/21 08:18:17;;;;;;;36.78;32.58;;;;;;;;;;5101688;28;20571;-84
2023/01/21 08:20:44;;;;;;;38.33;34.63;;;;;;;;;;5101705;28;20255;-84
2023/01/21 08:23:11;;;;;;;37.95;34.05;;;;;;;;;;5100105;28;20708;-84
2023/01/21 08:25:38;;;;;;;37.38;33.28;;;;;;;;;;5100404;28;20223;-85
2023/01/21 08:28:05;;;;;;;37.80;33.75;;;;;;;;;;5100901;28;20196;-85
2023/01/21 08:30:34;;;;;;;39.03;34.03;;;;;;;;;;5101198;28;20208;-85
2023/01/21 08:33:01;;;;;;;44.28;33.55;;;;;;;;;;5101131;28;20685;-85
2023/01/21 08:35:28;;;;;;;38.92;34.70;;;;;;;;;;5102226;28;20275;-85
2023/01/21 08:37:56;;;;;;;37.25;33.28;;;;;;;;;;5101497;28;20616;-85
2023/01/21 08:40:25;;;;;;;38.03;34.13;;;;;;;;;;5102134;28;20246;-85
2023/01/21 08:42:52;;;;;;;38.72;34.67;;;;;;;;;;5100151;28;20638;-85
2023/01/21 08:45:19;;;;;;;37.00;32.95;;;;;;;;;;5101326;28;20224;-85
2023/01/21 08:47:47;;;;;;;51.28;35.97;;;;;;;;;;5101642;28;20614;-85
2023/01/21 08:50:14;;;;;;;40.47;36.08;;;;;;;;;;5099673;28;20238;-85
2023/01/21 08:52:41;;;;;;;41.08;36.38;;;;;;;;;;5099730;28;20977;-84
2023/01/21 08:55:09;;;;;;;40.63;33.33;;;;;;;;;;5100123;28;20340;-85
2023/01/21 08:57:36;;;;;;;44.28;37.13;;;;;;;;;;5100693;28;20202;-85
2023/01/21 09:00:03;;;;;;;39.08;34.90;;;;;;;;;;5100140;28;20203;-85
2023/01/21 09:02:30;;;;;;;44.47;36.05;;;;;;;;;;5100235;28;20213;-85
2023/01/21 09:04:58;;;;;;;47.67;36.83;;;;;;;;;;5099650;28;20228;-85
2023/01/21 09:07:25;;;;;;;44.78;38.13;;;;;;;;;;5099960;28;20612;-85
2023/01/21 09:09:52;;;;;;;46.58;37.13;;;;;;;;;;5100165;28;20201;-85
2023/01/21 09:12:19;;;;;;;47.55;37.90;;;;;;;;;;5100226;28;20254;-85
2023/01/21 09:14:46;;;;;;;44.53;38.08;;;;;;;;;;5099338;28;20228;-82
2023/01/21 09:17:15;;;;;;;48.67;37.55;;;;;;;;;;5099924;28;20190;-89
2023/01/21 09:19:42;;;;;;;50.58;38.97;;;;;;;;;;5101101;28;20223;-81
2023/01/21 09:22:10;;;;;;;44.83;36.83;;;;;;;;;;5100906;28;20201;-81
2023/01/21 09:24:37;;;;;;;46.35;38.92;;;;;;;;;;5111530;28;20282;-81
2023/01/21 09:27:06;;;;;;;47.20;38.92;;;;;;;;;;5111212;28;20209;-81
2023/01/21 09:29:33;;;;;;;44.08;36.75;;;;;;;;;;5105694;28;20202;-81
2023/01/21 09:32:00;;;;;;;50.90;37.58;;;;;;;;;;5095914;28;20210;-85
2023/01/21 09:34:27;;;;;;;46.60;37.80;;;;;;;;;;5089457;28;20237;-86
2023/01/21 09:36:54;;;;;;;46.47;39.20;;;;;;;;;;5074142;28;20641;-75
2023/01/21 09:39:23;;;;;;;43.83;37.17;;;;;;;;;;5072622;28;20223;-77
2023/01/21 09:41:51;;;;;;;50.97;39.83;;;;;;;;;;5073612;28;20201;-82
2023/01/21 09:44:23;;;;;;;50.30;40.08;;;;;;;;;;5073415;28;20280;-80
2023/01/21 09:46:53;;;;;;;48.08;39.13;;;;;;;;;;5073677;28;20575;-80
2023/01/21 09:49:22;;;;;;;52.78;40.35;;;;;;;;;;5074719;28;20231;-78
2023/01/21 09:51:51;;;;;;;47.85;37.65;;;;;;;;;;5077007;28;20208;-79
2023/01/21 09:54:25;;;;;;;47.10;38.25;;;;;;;;;;5077031;28;20295;-80
2023/01/21 09:56:57;;;;;;;51.30;39.78;;;;;;;;;;5076975;28;20534;-79
2023/01/21 09:59:28;;;;;;;45.90;37.22;;;;;;;;;;5076409;28;20208;-80
2023/01/21 10:01:59;;;;;;;44.30;39.30;;;;;;;;;;5076331;28;20209;-79
2023/01/21 10:04:33;;;;;;;46.38;37.00;;;;;;;;;;5076927;28;20757;-79
2023/01/21 10:07:04;;;;;;;52.55;39.67;;;;;;;;;;5076995;28;20539;-80
2023/01/21 10:09:38;;;;;;;52.38;38.17;;;;;;;;;;5077010;28;20208;-80
2023/01/21 10:12:15;;;;;;;51.78;38.38;;;;;;;;;;5076521;28;20207;-79
2023/01/21 10:14:50;;;;;;;47.45;37.78;;;;;;;;;;5076729;28;20740;-81
2023/01/21 10:17:22;;;;;;;46.60;38.13;;;;;;;;;;5077203;28;20626;-80
2023/01/21 10:19:53;;;;;;;47.05;36.65;;;;;;;;;;5076605;28;20549;-80
2023/01/21 10:22:23;;;;;;;50.83;37.13;;;;;;;;;;5076327;28;20234;-79
2023/01/21 10:24:54;;;;;;;52.60;35.15;;;;;;;;;;5076974;28;20220;-79
2023/01/21 10:27:22;;;;;;;49.63;36.45;;;;;;;;;;5076642;28;20186;-80
2023/01/21 10:29:52;;;;;;;52.45;41.00;;;;;;;;;;5076539;28;20214;-79
2023/01/21 10:32:21;;;;;;;55.67;40.22;;;;;;;;;;5076124;28;20631;-80
2023/01/21 10:34:50;;;;;;;66.80;40.38;;;;;;;;;;5076253;28;20287;-79
2023/01/21 10:37:20;;;;;;;45.55;37.35;;;;;;;;;;5076626;28;20243;-80
2023/01/21 10:39:50;;;;;;;46.17;35.90;;;;;;;;;;5081272;28;20202;-80
2023/01/21 10:42:32;;;;;;;52.60;38.03;;;;;;;;;;5079677;28;20282;-80
2023/01/21 10:45:02;;;;;;;48.15;36.10;;;;;;;;;;5080740;28;20225;-80
2023/01/21 10:47:33;;;;;;;41.30;33.55;;;;;;;;;;5080444;28;20241;-79
2023/01/21 10:50:03;;;;;;;46.88;36.45;;;;;;;;;;5080118;28;20581;-79
2023/01/21 10:52:34;;;;;;;43.20;34.38;;;;;;;;;;5079369;28;20208;-79
2023/01/21 10:55:06;;;;;;;46.05;35.63;;;;;;;;;;5080052;28;20238;-80
2023/01/21 10:57:45;;;;;;;44.55;33.60;;;;;;;;;;5080278;28;20192;-79
2023/01/21 11:00:17;;;;;;;42.63;35.35;;;;;;;;;;5080121;28;20202;-79
2023/01/21 11:02:49;;;;;;;37.55;31.88;;;;;;;;;;5078727;28;20221;-79
2023/01/21 11:05:16;;;;;;;32.85;29.58;;;;;;;;;;5079813;28;20225;-80
2023/01/21 11:07:43;;;;;;;39.17;35.05;;;;;;;;;;5079597;28;20434;-80
2023/01/21 11:10:15;;;;;;;35.22;31.63;;;;;;;;;;5080102;28;20213;-79
2023/01/21 11:12:43;;;;;;;34.30;30.75;;;;;;;;;;5078580;28;20266;-79
2023/01/21 11:15:13;;;;;;;35.85;32.15;;;;;;;;;;5079332;28;20233;-80
2023/01/21 11:17:41;;;;;;;32.28;28.88;;;;;;;;;;5080208;28;20185;-79
2023/01/21 11:20:17;;;;;;;36.80;32.80;;;;;;;;;;5080130;28;20206;-80
2023/01/21 11:22:45;;;;;;;29.83;27.30;;;;;;;;;;5078130;28;20633;-79
2023/01/21 11:25:24;;;;;;;29.95;26.83;;;;;;;;;;5079529;28;20233;-80
2023/01/21 11:27:52;;;;;;;31.50;28.65;;;;;;;;;;5078635;28;20190;-79
2023/01/21 11:30:30;;;;;;;32.38;29.17;;;;;;;;;;5079129;28;20266;-79
2023/01/21 11:33:11;;;;;;;35.20;30.25;;;;;;;;;;5077064;28;20261;-79
2023/01/21 11:35:38;;;;;;;33.08;29.98;;;;;;;;;;5078390;28;20229;-78
2023/01/21 11:38:05;;;;;;;30.90;27.90;;;;;;;;;;5077618;28;20259;-79
2023/01/21 11:40:32;;;;;;;32.33;28.88;;;;;;;;;;5077720;28;20672;-78
2023/01/21 11:43:00;;;;;;;32.33;28.92;;;;;;;;;;5077111;28;20206;-78
2023/01/21 11:45:29;;;;;;;32.58;29.05;;;;;;;;;;5077226;28;20226;-79
2023/01/21 11:47:56;;;;;;;31.60;28.60;;;;;;;;;;5077344;28;20208;-78
2023/01/21 11:50:26;;;;;;;30.13;27.35;;;;;;;;;;5076518;28;20205;-79
2023/01/21 11:53:10;;;;;;;31.50;28.65;;;;;;;;;;5076898;28;20206;-79
2023/01/21 11:55:39;;;;;;;29.17;26.33;;;;;;;;;;5076177;28;20232;-79
2023/01/21 11:58:16;;;;;;;29.42;26.58;;;;;;;;;;5077524;28;20189;-79
2023/01/21 12:00:46;;;;;;;29.40;26.70;;;;;;;;;;5077552;28;20241;-79
2023/01/21 12:03:16;;;;;;;29.98;27.33;;;;;;;;;;5077068;28;20600;-78
2023/01/21 12:05:43;;;;;;;28.52;26.20;;;;;;;;;;5077680;28;20246;-79
2023/01/21 12:08:18;;;;;;;25.38;23.58;;;;;;;;;;5076991;28;20210;-78
2023/01/21 12:10:46;;;;;;;28.27;25.75;;;;;;;;;;5077165;28;20236;-78
2023/01/21 12:13:18;;;;;;;25.95;24.02;;;;;;;;;;5077185;28;20567;-78
2023/01/21 12:16:06;;;;;;;26.40;24.10;;;;;;;;;;5077608;28;20229;-78
2023/01/21 12:18:39;;;;;;;26.85;24.85;;;;;;;;;;5072992;28;20214;-79
2023/01/21 12:21:10;;;;;;;26.27;24.25;;;;;;;;;;5077033;28;20240;-79
2023/01/21 12:23:53;;;;;;;28.90;26.20;;;;;;;;;;5076824;28;20570;-78
2023/01/21 12:26:27;;;;;;;28.38;25.98;;;;;;;;;;5077054;28;20225;-79
2023/01/21 12:29:02;;;;;;;27.48;24.92;;;;;;;;;;5076814;28;20185;-78
2023/01/21 12:31:32;;;;;;;26.75;24.83;;;;;;;;;;5076118;28;20191;-79
2023/01/21 12:34:04;;;;;;;25.70;23.65;;;;;;;;;;5076385;28;20695;-79
2023/01/21 12:36:33;;;;;;;25.42;23.40;;;;;;;;;;5075851;28;20210;-79
2023/01/21 12:39:08;;;;;;;26.55;24.40;;;;;;;;;;5076340;28;20209;-78
2023/01/21 12:41:37;;;;;;;26.58;24.27;;;;;;;;;;5075824;28;20237;-79
2023/01/21 12:44:14;;;;;;;26.98;24.70;;;;;;;;;;5076063;28;20202;-79
2023/01/21 12:46:44;;;;;;;27.23;25.20;;;;;;;;;;5076172;28;20257;-79
2023/01/21 12:49:14;;;;;;;32.42;29.73;;;;;;;;;;5075501;28;20239;-78
2023/01/21 12:51:42;;;;;;;26.98;24.98;;;;;;;;;;5075508;28;20201;-79
2023/01/21 12:54:14;;;;;;;30.95;28.10;;;;;;;;;;5075449;28;20287;-78
2023/01/21 12:56:44;;;;;;;29.00;26.85;;;;;;;;;;5075587;28;20252;-78
2023/01/21 12:59:16;;;;;;;28.60;26.30;;;;;;;;;;5075396;28;20200;-78
2023/01/21 13:01:49;;;;;;;33.42;30.98;;;;;;;;;;5075373;28;20204;-82
2023/01/21 13:04:25;;;;;;;29.98;27.77;;;;;;;;;;5077087;28;20187;-79
2023/01/21 13:06:54;;;;;;;37.47;33.85;;;;;;;;;;5076532;28;20206;-80
2023/01/21 13:09:25;;;;;;;36.92;33.35;;;;;;;;;;5077549;28;20210;-79
2023/01/21 13:11:55;;;;;;;26.40;24.20;;;;;;;;;;5075850;28;20704;-80
2023/01/21 13:14:27;;;;;;;26.35;24.45;;;;;;;;;;5076429;28;20229;-80
2023/01/21 13:16:56;;;;;;;33.70;30.75;;;;;;;;;;5076703;28;20631;-80
2023/01/21 13:19:23;;;;;;;32.03;29.50;;;;;;;;;;5077007;28;20197;-79
2023/01/21 13:21:52;;;;;;;29.48;27.10;;;;;;;;;;5076111;28;20206;-80
2023/01/21 13:24:23;;;;;;;27.83;25.58;;;;;;;;;;5076684;28;20225;-79
2023/01/21 13:26:54;;;;;;;41.92;37.78;;;;;;;;;;5077241;28;20271;-79
2023/01/21 13:29:25;;;;;;;31.88;29.23;;;;;;;;;;5076358;28;20623;-80
2023/01/21 13:31:59;;;;;;;43.92;39.75;;;;;;;;;;5076380;28;20212;-80
2023/01/21 13:34:28;;;;;;;31.95;28.95;;;;;;;;;;5076395;28;20230;-80
2023/01/21 13:37:01;;;;;;;30.88;28.48;;;;;;;;;;5076683;28;20211;-79
2023/01/21 13:39:32;;;;;;;33.38;30.40;;;;;;;;;;5076882;28;20197;-79
2023/01/21 13:42:14;;;;;;;26.58;24.58;;;;;;;;;;5076184;28;20194;-79
2023/01/21 13:44:45;;;;;;;32.60;29.75;;;;;;;;;;5076340;28;20267;-80
2023/01/21 13:47:20;;;;;;;26.73;24.65;;;;;;;;;;5076517;28;20186;-79
2023/01/21 13:50:06;;;;;;;27.95;25.70;;;;;;;;;;5076551;28;20215;-80
2023/01/21 13:52:36;;;;;;;25.65;23.65;;;;;;;;;;5076326;28;20193;-79
2023/01/21 13:55:12;;;;;;;26.67;24.77;;;;;;;;;;5078765;28;20229;-80
2023/01/21 13:57:51;;;;;;;27.00;24.80;;;;;;;;;;5081977;28;20273;-79
2023/01/21 14:00:20;;;;;;;27.05;24.75;;;;;;;;;;5082217;28;20704;-80
2023/01/21 14:02:51;;;;;;;30.15;27.75;;;;;;;;;;5074887;28;20282;-79
2023/01/21 14:05:23;;;;;;;27.85;25.50;;;;;;;;;;5075336;28;20267;-79
2023/01/21 14:07:51;;;;;;;27.58;25.38;;;;;;;;;;5075957;28;20239;-79
2023/01/21 14:10:21;;;;;;;27.35;25.15;;;;;;;;;;5076617;28;20266;-80
2023/01/21 14:12:57;;;;;;;27.92;25.23;;;;;;;;;;5074526;28;20673;-79
2023/01/21 14:15:32;;;;;;;27.50;25.27;;;;;;;;;;5075602;28;20225;-80
2023/01/21 14:18:14;;;;;;;27.50;25.20;;;;;;;;;;5076621;28;20707;-80
2023/01/21 14:20:51;;;;;;;27.13;25.02;;;;;;;;;;5089613;28;20186;-80
2023/01/21 14:23:43;;;;;;;32.13;29.02;;;;;;;;;;5095800;28;20203;-79
2023/01/21 14:26:16;;;;;;;28.60;25.98;;;;;;;;;;5095672;28;20229;-79
2023/01/21 14:28:49;;;;;;;30.00;27.30;;;;;;;;;;5096501;28;20244;-79
2023/01/21 14:31:18;;;;;;;28.13;25.85;;;;;;;;;;5095290;28;20209;-78